createdAt,value
2022-08-05T00:00:46.210Z,45.58
2022-08-05T00:06:05.728Z,46.00
2022-08-05T00:11:48.683Z,46.64
2022-08-05T00:17:05.601Z,46.98
2022-08-05T00:22:26.388Z,48.14
2022-08-05T00:27:36.275Z,49.00
2022-08-05T00:33:05.242Z,49.37
2022-08-05T00:38:28.900Z,49.67
2022-08-05T00:44:05.823Z,50.34
2022-08-05T00:49:16.807Z,51.28
2022-08-05T00:54:35.643Z,51.86
2022-08-05T00:59:45.510Z,52.54
2022-08-05T01:10:42.214Z,54.89
2022-08-05T01:16:08.058Z,54.94
2022-08-05T01:21:54.809Z,56.16
2022-08-05T01:27:19.670Z,57.19
2022-08-05T01:32:38.359Z,57.77
2022-08-05T01:38:04.534Z,58.79
2022-08-05T01:43:25.795Z,59.46
2022-08-05T01:48:50.736Z,59.90
2022-08-05T01:53:59.655Z,59.66
2022-08-05T01:59:14.532Z,60.74
2022-08-05T02:04:33.929Z,61.75
2022-08-05T02:10:07.857Z,61.47
2022-08-05T02:15:22.340Z,62.13
2022-08-05T02:21:00.037Z,62.77
2022-08-05T02:26:17.381Z,63.28
2022-08-05T02:31:26.669Z,64.07
2022-08-05T02:36:55.389Z,64.43
2022-08-05T02:42:22.502Z,65.28
2022-08-05T02:48:07.058Z,64.79
2022-08-05T02:53:19.660Z,66.38
2022-08-05T02:58:37.809Z,66.34
2022-08-05T03:04:14.339Z,66.41
2022-08-05T03:09:51.470Z,67.34
2022-08-05T03:15:02.267Z,67.31
2022-08-05T03:20:23.703Z,67.75
2022-08-05T03:26:30.355Z,68.57
2022-08-05T03:31:56.888Z,69.05
2022-08-05T03:37:13.180Z,68.86
2022-08-05T03:42:22.226Z,69.91
2022-08-05T03:47:35.462Z,70.37
2022-08-05T03:55:51.034Z,71.23
2022-08-05T03:58:35.819Z,71.96
2022-08-05T04:04:09.467Z,71.68
2022-08-05T04:09:20.291Z,71.86
2022-08-05T04:14:44.363Z,72.34
2022-08-05T04:19:54.291Z,72.34
2022-08-05T04:24:58.647Z,72.45
2022-08-05T04:30:12.444Z,72.86
2022-08-05T04:35:23.275Z,72.44
2022-08-05T04:40:32.972Z,71.99
2022-08-05T04:46:28.170Z,71.79
2022-08-05T04:51:44.179Z,72.02
2022-08-05T04:56:51.046Z,71.16
2022-08-05T05:02:36.082Z,70.24
2022-08-05T05:07:56.229Z,70.10
2022-08-05T05:13:16.945Z,69.64
2022-08-05T05:18:33.135Z,68.01
2022-08-05T05:24:02.286Z,61.90
2022-08-05T05:29:14.393Z,57.13
2022-08-05T05:34:36.233Z,53.52
2022-08-05T05:39:55.406Z,53.12
2022-08-05T05:45:03.872Z,52.13
2022-08-05T05:50:20.347Z,48.14
2022-08-05T05:55:24.254Z,45.69
2022-08-05T06:00:50.504Z,43.43
2022-08-05T06:05:55.942Z,42.29
2022-08-05T06:11:04.208Z,42.91
2022-08-05T06:16:28.839Z,41.50
2022-08-05T06:21:49.724Z,44.90
2022-08-05T06:28:08.811Z,47.24
2022-08-05T06:32:59.457Z,49.32
2022-08-05T06:38:35.839Z,53.40
2022-08-05T06:44:00.158Z,55.77
2022-08-05T06:49:08.820Z,57.46
2022-08-05T06:54:52.096Z,59.64
2022-08-05T06:59:59.490Z,60.24
2022-08-05T07:05:14.156Z,61.71
2022-08-05T07:10:32.340Z,61.96
2022-08-05T07:16:00.859Z,62.40
2022-08-05T07:21:09.534Z,62.86
2022-08-05T07:26:41.862Z,64.01
2022-08-05T07:31:55.714Z,63.57
2022-08-05T07:37:13.292Z,63.93
2022-08-05T07:42:33.979Z,64.79
2022-08-05T07:53:19.611Z,63.50
2022-08-05T07:58:57.412Z,63.49
2022-08-05T08:04:00.466Z,62.89
2022-08-05T08:09:15.273Z,61.31
2022-08-05T08:14:22.758Z,60.79
2022-08-05T08:20:22.726Z,60.57
2022-08-05T08:25:02.751Z,60.75
2022-08-05T08:30:29.580Z,60.36
2022-08-05T08:35:53.950Z,60.70
2022-08-05T08:41:08.960Z,57.64
2022-08-05T08:46:19.191Z,58.28
2022-08-05T08:52:03.821Z,57.73
2022-08-05T08:56:59.575Z,59.22
2022-08-05T09:02:08.982Z,60.58
2022-08-05T09:07:28.436Z,60.29
2022-08-05T09:13:05.004Z,59.30
2022-08-05T09:18:16.107Z,57.68
2022-08-05T09:23:37.427Z,57.75
2022-08-05T09:28:55.978Z,57.45
2022-08-05T09:34:17.622Z,57.36
2022-08-05T09:39:43.164Z,56.23
2022-08-05T09:45:17.870Z,55.89
2022-08-05T09:50:44.752Z,56.67
2022-08-05T09:56:03.721Z,56.73
2022-08-05T10:01:22.576Z,55.02
2022-08-05T10:06:55.129Z,55.32
2022-08-05T10:12:31.020Z,54.92
2022-08-05T10:17:40.715Z,55.04
2022-08-05T10:22:56.025Z,54.43
2022-08-05T10:33:28.856Z,54.21
2022-08-05T10:38:37.763Z,54.58
2022-08-05T10:44:09.369Z,54.25
2022-08-05T10:49:27.553Z,55.03
2022-08-05T10:55:04.661Z,53.98
2022-08-05T11:00:24.907Z,54.15
2022-08-05T11:05:42.980Z,53.55
2022-08-05T11:11:00.882Z,52.56
2022-08-05T11:16:47.511Z,51.96
2022-08-05T11:22:01.779Z,51.05
2022-08-05T11:27:51.795Z,50.78
2022-08-05T11:33:46.389Z,50.74
2022-08-05T11:39:19.171Z,50.60
2022-08-05T11:44:53.891Z,50.85
2022-08-05T11:50:08.256Z,51.37
2022-08-05T11:55:36.519Z,49.85
2022-08-05T12:00:55.360Z,49.67
2022-08-05T12:06:11.369Z,49.73
2022-08-05T12:11:40.104Z,50.00
2022-08-05T12:18:02.693Z,49.39
2022-08-05T12:22:47.642Z,48.91
2022-08-05T12:28:02.463Z,48.90
2022-08-05T12:33:27.098Z,49.15
2022-08-05T12:38:41.207Z,49.48
2022-08-05T12:44:02.180Z,49.92
2022-08-05T12:49:13.580Z,49.66
2022-08-05T12:54:26.490Z,49.99
2022-08-05T12:59:46.835Z,48.50
2022-08-05T13:05:20.611Z,47.61
2022-08-05T13:10:28.918Z,47.50
2022-08-05T13:15:50.881Z,47.02
2022-08-05T13:21:01.442Z,46.90
2022-08-05T13:26:14.737Z,47.12
2022-08-05T13:32:03.320Z,47.16
2022-08-05T13:36:52.740Z,48.33
2022-08-05T13:41:59.095Z,48.05
2022-08-05T13:47:08.756Z,47.76
2022-08-05T13:52:29.467Z,43.89
2022-08-05T13:57:51.235Z,43.10
2022-08-05T14:03:10.381Z,42.80
2022-08-05T14:08:35.528Z,41.69
2022-08-05T14:13:48.538Z,41.55
2022-08-05T14:19:05.025Z,41.07
2022-08-05T14:24:33.585Z,41.12
2022-08-05T14:29:55.634Z,41.50
2022-08-05T14:35:01.644Z,41.71
2022-08-05T14:40:14.012Z,42.64
2022-08-05T14:45:34.950Z,42.54
2022-08-05T14:50:46.557Z,42.54
2022-08-05T14:55:58.738Z,43.04
2022-08-05T15:01:17.465Z,43.16
2022-08-05T15:06:31.211Z,43.10
2022-08-05T15:12:04.112Z,42.69
2022-08-05T15:17:46.814Z,42.63
2022-08-05T15:23:11.583Z,43.40
2022-08-05T15:28:22.249Z,49.92
2022-08-05T15:34:18.397Z,52.27
2022-08-05T15:41:00.213Z,54.48
2022-08-05T15:45:38.197Z,55.61
2022-08-05T15:51:09.316Z,57.90
2022-08-05T15:56:22.361Z,59.14
2022-08-05T16:01:39.759Z,60.67
2022-08-05T16:07:13.410Z,61.63
2022-08-05T16:12:24.119Z,62.07
2022-08-05T16:17:40.205Z,63.15
2022-08-05T16:22:53.247Z,63.49
2022-08-05T16:28:05.903Z,64.69
2022-08-05T16:33:16.567Z,66.30
2022-08-05T16:38:44.025Z,65.68
2022-08-05T16:44:04.709Z,66.21
2022-08-05T16:49:13.806Z,65.67
2022-08-05T16:54:27.534Z,64.30
2022-08-05T17:00:00.355Z,64.11
2022-08-05T17:05:38.474Z,64.58
2022-08-05T17:10:43.676Z,65.16
2022-08-05T17:15:55.622Z,65.21
2022-08-05T17:21:20.045Z,65.61
2022-08-05T17:26:31.681Z,65.73
2022-08-05T17:32:05.718Z,65.78
2022-08-05T17:37:41.910Z,66.28
2022-08-05T17:42:56.938Z,65.37
2022-08-05T17:48:10.134Z,65.10
2022-08-05T17:53:30.167Z,65.00
2022-08-05T17:58:51.218Z,65.04
2022-08-05T18:04:04.737Z,65.78
2022-08-05T18:09:18.705Z,65.85
2022-08-05T18:14:23.931Z,65.52
2022-08-05T18:19:40.735Z,65.87
2022-08-05T18:25:02.394Z,66.06
2022-08-05T18:30:21.487Z,65.98
2022-08-05T18:35:59.640Z,65.81
2022-08-05T18:41:56.163Z,66.36
2022-08-05T18:46:52.816Z,66.44
2022-08-05T18:52:38.067Z,66.87
2022-08-05T18:58:06.928Z,66.29
2022-08-05T19:03:52.743Z,66.68
2022-08-05T19:09:00.357Z,66.23
2022-08-05T19:19:33.256Z,65.19
2022-08-05T19:24:56.136Z,64.28
2022-08-05T19:30:09.195Z,64.11
2022-08-05T19:35:25.956Z,63.25
2022-08-05T19:40:52.177Z,63.47
2022-08-05T19:46:16.653Z,64.04
2022-08-05T19:52:08.324Z,64.34
2022-08-05T19:57:15.741Z,66.78
2022-08-05T20:02:44.457Z,69.09
2022-08-05T20:08:00.847Z,69.17
2022-08-05T20:13:10.261Z,68.82
2022-08-05T20:18:33.681Z,69.29
2022-08-05T20:23:55.432Z,69.73
2022-08-05T20:29:27.341Z,68.73
2022-08-05T20:34:46.578Z,69.58
2022-08-05T20:40:24.090Z,69.01
2022-08-05T20:45:56.271Z,69.53
2022-08-05T20:51:32.036Z,71.46
2022-08-05T20:56:58.037Z,71.74
2022-08-05T21:02:04.678Z,72.66
2022-08-05T21:07:50.834Z,73.47
2022-08-05T21:13:08.822Z,72.97
2022-08-05T21:18:23.280Z,72.30
2022-08-05T21:23:39.022Z,72.14
2022-08-05T21:28:50.841Z,71.92
2022-08-05T21:33:57.485Z,71.78
2022-08-05T21:39:14.287Z,71.56
2022-08-05T21:44:26.773Z,71.87
2022-08-05T21:49:48.620Z,71.35
2022-08-05T21:55:06.249Z,71.78
2022-08-05T22:00:15.842Z,70.80
2022-08-05T22:05:27.699Z,70.98
2022-08-05T22:10:40.103Z,71.41
2022-08-05T22:16:02.729Z,70.96
2022-08-05T22:21:22.594Z,71.34
2022-08-05T22:26:49.902Z,70.66
2022-08-05T22:32:02.585Z,70.93
2022-08-05T22:37:20.901Z,70.76
2022-08-05T22:42:31.444Z,70.95
2022-08-05T22:47:56.894Z,71.41
2022-08-05T22:53:09.882Z,71.28
2022-08-05T22:58:28.639Z,71.47
2022-08-05T23:03:59.134Z,71.52
2022-08-05T23:09:27.587Z,72.01
2022-08-05T23:14:48.563Z,72.22
2022-08-05T23:19:57.133Z,72.12
2022-08-05T23:25:04.169Z,72.81
2022-08-05T23:30:16.877Z,73.77
2022-08-05T23:35:22.727Z,73.77
2022-08-05T23:40:27.900Z,73.49
2022-08-05T23:45:42.886Z,73.94
2022-08-05T23:50:48.660Z,73.71
2022-08-05T23:55:53.502Z,72.22
